sensor_id;sensor_type;location;lat;lon;timestamp;pressure;altitude;pressure_sealevel;temperature;humidity
74045;BME280;62389;51.412;5.436;2023-08-07T00:02:03;101255.56;;;12.48;100.00
74045;BME280;62389;51.412;5.436;2023-08-07T00:04:29;101266.97;;;12.47;100.00
74045;BME280;62389;51.412;5.436;2023-08-07T00:06:54;101259.94;;;12.48;100.00
74045;BME280;62389;51.412;5.436;2023-08-07T00:09:20;101262.66;;;12.46;100.00
74045;BME280;62389;51.412;5.436;2023-08-07T00:11:45;101255.56;;;12.48;100.00
74045;BME280;62389;51.412;5.436;2023-08-07T00:14:10;101252.84;;;12.50;100.00
74045;BME280;62389;51.412;5.436;2023-08-07T00:16:36;101255.44;;;12.51;100.00
74045;BME280;62389;51.412;5.436;2023-08-07T00:19:02;101257.97;;;12.53;100.00
74045;BME280;62389;51.412;5.436;2023-08-07T00:21:28;101257.00;;;12.55;100.00
74045;BME280;62389;51.412;5.436;2023-08-07T00:23:53;101253.50;;;12.55;100.00
74045;BME280;62389;51.412;5.436;2023-08-07T00:26:20;101255.22;;;12.56;100.00
74045;BME280;62389;51.412;5.436;2023-08-07T00:28:46;101262.94;;;12.59;100.00
74045;BME280;62389;51.412;5.436;2023-08-07T00:31:11;101262.88;;;12.60;100.00
74045;BME280;62389;51.412;5.436;2023-08-07T00:33:37;101256.72;;;12.61;100.00
74045;BME280;62389;51.412;5.436;2023-08-07T00:36:03;101260.19;;;12.62;100.00
74045;BME280;62389;51.412;5.436;2023-08-07T00:38:29;101265.44;;;12.62;100.00
74045;BME280;62389;51.412;5.436;2023-08-07T00:40:54;101268.78;;;12.65;100.00
74045;BME280;62389;51.412;5.436;2023-08-07T00:43:19;101280.13;;;12.66;100.00
74045;BME280;62389;51.412;5.436;2023-08-07T00:45:46;101274.03;;;12.65;100.00
74045;BME280;62389;51.412;5.436;2023-08-07T00:48:12;101276.66;;;12.65;100.00
74045;BME280;62389;51.412;5.436;2023-08-07T00:50:39;101280.91;;;12.68;100.00
74045;BME280;62389;51.412;5.436;2023-08-07T00:53:05;101278.06;;;12.73;100.00
74045;BME280;62389;51.412;5.436;2023-08-07T00:55:31;101272.06;;;12.70;100.00
74045;BME280;62389;51.412;5.436;2023-08-07T00:57:58;101280.69;;;12.73;100.00
74045;BME280;62389;51.412;5.436;2023-08-07T01:00:24;101277.13;;;12.74;100.00
74045;BME280;62389;51.412;5.436;2023-08-07T01:02:50;101285.84;;;12.74;100.00
74045;BME280;62389;51.412;5.436;2023-08-07T01:05:17;101277.13;;;12.74;100.00
74045;BME280;62389;51.412;5.436;2023-08-07T01:07:45;101278.16;;;12.71;100.00
74045;BME280;62389;51.412;5.436;2023-08-07T01:10:10;101277.28;;;12.70;100.00
74045;BME280;62389;51.412;5.436;2023-08-07T01:12:42;101290.34;;;12.72;100.00
74045;BME280;62389;51.412;5.436;2023-08-07T01:15:16;101290.34;;;12.72;100.00
74045;BME280;62389;51.412;5.436;2023-08-07T01:17:46;101288.47;;;12.74;100.00
74045;BME280;62389;51.412;5.436;2023-08-07T01:20:13;101287.59;;;12.75;100.00
74045;BME280;62389;51.412;5.436;2023-08-07T01:22:39;101293.69;;;12.76;100.00
74045;BME280;62389;51.412;5.436;2023-08-07T01:25:05;101286.78;;;12.73;100.00
74045;BME280;62389;51.412;5.436;2023-08-07T01:27:35;101288.66;;;12.71;100.00
74045;BME280;62389;51.412;5.436;2023-08-07T01:30:23;101279.03;;;12.70;100.00
74045;BME280;62389;51.412;5.436;2023-08-07T01:33:16;101289.63;;;12.68;100.00
74045;BME280;62389;51.412;5.436;2023-08-07T01:35:55;101292.25;;;12.68;100.00
74045;BME280;62389;51.412;5.436;2023-08-07T01:38:24;101296.72;;;12.66;99.56
74045;BME280;62389;51.412;5.436;2023-08-07T01:40:50;101292.31;;;12.67;99.75
74045;BME280;62389;51.412;5.436;2023-08-07T01:43:17;101290.63;;;12.66;98.61
74045;BME280;62389;51.412;5.436;2023-08-07T01:45:44;101296.78;;;12.65;99.52
74045;BME280;62389;51.412;5.436;2023-08-07T01:48:09;101297.69;;;12.64;98.54
74045;BME280;62389;51.412;5.436;2023-08-07T01:50:34;101299.41;;;12.65;99.01
74045;BME280;62389;51.412;5.436;2023-08-07T01:53:01;101307.22;;;12.66;99.68
74045;BME280;62389;51.412;5.436;2023-08-07T01:55:27;101312.38;;;12.68;100.00
74045;BME280;62389;51.412;5.436;2023-08-07T01:57:53;101318.69;;;12.64;100.00
74045;BME280;62389;51.412;5.436;2023-08-07T02:00:18;101328.41;;;12.62;100.00
74045;BME280;62389;51.412;5.436;2023-08-07T02:02:43;101321.47;;;12.61;100.00
74045;BME280;62389;51.412;5.436;2023-08-07T02:05:10;101319.81;;;12.58;100.00
74045;BME280;62389;51.412;5.436;2023-08-07T02:07:36;101317.28;;;12.57;100.00
74045;BME280;62389;51.412;5.436;2023-08-07T02:10:01;101321.06;;;12.50;100.00
74045;BME280;62389;51.412;5.436;2023-08-07T02:12:26;101325.47;;;12.49;100.00
74045;BME280;62389;51.412;5.436;2023-08-07T02:14:52;101325.47;;;12.49;100.00
74045;BME280;62389;51.412;5.436;2023-08-07T02:17:20;101321.16;;;12.48;100.00
74045;BME280;62389;51.412;5.436;2023-08-07T02:19:46;101315.81;;;12.50;100.00
74045;BME280;62389;51.412;5.436;2023-08-07T02:22:12;101320.19;;;12.51;100.00
74045;BME280;62389;51.412;5.436;2023-08-07T02:24:37;101321.06;;;12.50;100.00
74045;BME280;62389;51.412;5.436;2023-08-07T02:27:02;101329.81;;;12.50;100.00
74045;BME280;62389;51.412;5.436;2023-08-07T02:29:28;101328.03;;;12.51;100.00
74045;BME280;62389;51.412;5.436;2023-08-07T02:31:55;101326.31;;;12.50;100.00
74045;BME280;62389;51.412;5.436;2023-08-07T02:34:20;101317.59;;;12.49;100.00
74045;BME280;62389;51.412;5.436;2023-08-07T02:36:45;101323.78;;;12.48;100.00
74045;BME280;62389;51.412;5.436;2023-08-07T02:39:11;101327.19;;;12.50;100.00
74045;BME280;62389;51.412;5.436;2023-08-07T02:41:36;101316.75;;;12.49;100.00
74045;BME280;62389;51.412;5.436;2023-08-07T02:44:01;101319.38;;;12.49;100.00
74045;BME280;62389;51.412;5.436;2023-08-07T02:46:27;101324.69;;;12.47;100.00
74045;BME280;62389;51.412;5.436;2023-08-07T02:48:52;101319.38;;;12.49;100.00
74045;BME280;62389;51.412;5.436;2023-08-07T02:51:19;101313.19;;;12.50;100.00
74045;BME280;62389;51.412;5.436;2023-08-07T02:53:44;101312.22;;;12.52;100.00
74045;BME280;62389;51.412;5.436;2023-08-07T02:56:09;101314.94;;;12.51;100.00
74045;BME280;62389;51.412;5.436;2023-08-07T02:58:35;101308.75;;;12.52;100.00
74045;BME280;62389;51.412;5.436;2023-08-07T03:01:04;101314.94;;;12.51;100.00
74045;BME280;62389;51.412;5.436;2023-08-07T03:03:33;101313.06;;;12.53;100.00
74045;BME280;62389;51.412;5.436;2023-08-07T03:05:58;101306.97;;;12.52;100.00
74045;BME280;62389;51.412;5.436;2023-08-07T03:08:23;101304.28;;;12.54;100.00
74045;BME280;62389;51.412;5.436;2023-08-07T03:10:53;101309.53;;;12.54;100.00
74045;BME280;62389;51.412;5.436;2023-08-07T03:13:21;101306.06;;;12.53;100.00
74045;BME280;62389;51.412;5.436;2023-08-07T03:15:46;101306.91;;;12.54;100.00
74045;BME280;62389;51.412;5.436;2023-08-07T03:18:14;101305.06;;;12.56;100.00
74045;BME280;62389;51.412;5.436;2023-08-07T03:20:40;101312.03;;;12.57;100.00
74045;BME280;62389;51.412;5.436;2023-08-07T03:23:05;101315.56;;;12.56;100.00
74045;BME280;62389;51.412;5.436;2023-08-07T03:25:30;101308.47;;;12.58;100.00
74045;BME280;62389;51.412;5.436;2023-08-07T03:27:56;101309.31;;;12.58;100.00
74045;BME280;62389;51.412;5.436;2023-08-07T03:30:21;101307.63;;;12.57;100.00
74045;BME280;62389;51.412;5.436;2023-08-07T03:32:46;101308.56;;;12.56;100.00
74045;BME280;62389;51.412;5.436;2023-08-07T03:35:12;101309.41;;;12.57;100.00
74045;BME280;62389;51.412;5.436;2023-08-07T03:37:37;101315.56;;;12.56;100.00
74045;BME280;62389;51.412;5.436;2023-08-07T03:40:03;101316.41;;;12.56;100.00
74045;BME280;62389;51.412;5.436;2023-08-07T03:42:28;101302.44;;;12.56;100.00
74045;BME280;62389;51.412;5.436;2023-08-07T03:44:54;101302.44;;;12.56;100.00
74045;BME280;62389;51.412;5.436;2023-08-07T03:47:19;101309.53;;;12.54;100.00
74045;BME280;62389;51.412;5.436;2023-08-07T03:49:45;101300.72;;;12.55;100.00
74045;BME280;62389;51.412;5.436;2023-08-07T03:52:10;101306.91;;;12.54;100.00
74045;BME280;62389;51.412;5.436;2023-08-07T03:54:35;101302.56;;;12.53;100.00
74045;BME280;62389;51.412;5.436;2023-08-07T03:57:01;101305.13;;;12.54;100.00
74045;BME280;62389;51.412;5.436;2023-08-07T03:59:27;101309.47;;;12.55;100.00
74045;BME280;62389;51.412;5.436;2023-08-07T04:01:52;101303.44;;;12.53;100.00
74045;BME280;62389;51.412;5.436;2023-08-07T04:04:17;101304.28;;;12.54;100.00
74045;BME280;62389;51.412;5.436;2023-08-07T04:06:43;101302.44;;;12.56;100.00
74045;BME280;62389;51.412;5.436;2023-08-07T04:09:09;101302.38;;;12.57;100.00
74045;BME280;62389;51.412;5.436;2023-08-07T04:11:35;101307.63;;;12.57;100.00
74045;BME280;62389;51.412;5.436;2023-08-07T04:14:01;101311.94;;;12.58;100.00
74045;BME280;62389;51.412;5.436;2023-08-07T04:16:26;101310.25;;;12.57;100.00
74045;BME280;62389;51.412;5.436;2023-08-07T04:18:51;101312.88;;;12.57;100.00
74045;BME280;62389;51.412;5.436;2023-08-07T04:21:17;101312.88;;;12.57;100.00
74045;BME280;62389;51.412;5.436;2023-08-07T04:23:42;101318.19;;;12.56;100.00
74045;BME280;62389;51.412;5.436;2023-08-07T04:26:07;101317.41;;;12.54;100.00
74045;BME280;62389;51.412;5.436;2023-08-07T04:28:33;101317.41;;;12.54;100.00
74045;BME280;62389;51.412;5.436;2023-08-07T04:30:58;101326.19;;;12.53;100.00
74045;BME280;62389;51.412;5.436;2023-08-07T04:33:23;101330.59;;;12.52;100.00
74045;BME280;62389;51.412;5.436;2023-08-07T04:35:49;101333.22;;;12.52;100.00
74045;BME280;62389;51.412;5.436;2023-08-07T04:38:17;101329.88;;;12.49;100.00
74045;BME280;62389;51.412;5.436;2023-08-07T04:40:46;101338.53;;;12.51;100.00
74045;BME280;62389;51.412;5.436;2023-08-07T04:43:13;101340.25;;;12.52;100.00
74045;BME280;62389;51.412;5.436;2023-08-07T04:45:38;101339.25;;;12.54;100.00
74045;BME280;62389;51.412;5.436;2023-08-07T04:48:05;101334.84;;;12.55;100.00
74045;BME280;62389;51.412;5.436;2023-08-07T04:50:30;101338.25;;;12.57;100.00
74045;BME280;62389;51.412;5.436;2023-08-07T04:52:55;101337.34;;;12.58;100.00
74045;BME280;62389;51.412;5.436;2023-08-07T04:55:21;101333.00;;;12.57;100.00
74045;BME280;62389;51.412;5.436;2023-08-07T04:57:46;101338.19;;;12.58;100.00
74045;BME280;62389;51.412;5.436;2023-08-07T05:00:12;101332.09;;;12.58;100.00
74045;BME280;62389;51.412;5.436;2023-08-07T05:02:38;101332.00;;;12.59;100.00
74045;BME280;62389;51.412;5.436;2023-08-07T05:05:04;101337.22;;;12.61;100.00
74045;BME280;62389;51.412;5.436;2023-08-07T05:07:30;101342.47;;;12.61;100.00
74045;BME280;62389;51.412;5.436;2023-08-07T05:09:57;101339.84;;;12.61;100.00
74045;BME280;62389;51.412;5.436;2023-08-07T05:12:24;101342.31;;;12.64;100.00
74045;BME280;62389;51.412;5.436;2023-08-07T05:14:50;101344.94;;;12.64;100.00
74045;BME280;62389;51.412;5.436;2023-08-07T05:17:15;101344.16;;;12.62;99.16
74045;BME280;62389;51.412;5.436;2023-08-07T05:19:40;101344.16;;;12.62;98.22
74045;BME280;62389;51.412;5.436;2023-08-07T05:22:06;101349.41;;;12.62;98.21
74045;BME280;62389;51.412;5.436;2023-08-07T05:24:31;101358.97;;;12.63;99.00
74045;BME280;62389;51.412;5.436;2023-08-07T05:27:12;101360.84;;;12.61;97.85
74045;BME280;62389;51.412;5.436;2023-08-07T05:29:38;101355.50;;;12.62;98.64
74045;BME280;62389;51.412;5.436;2023-08-07T05:32:09;101366.97;;;12.60;100.00
74045;BME280;62389;51.412;5.436;2023-08-07T05:34:35;101366.19;;;12.58;99.58
74045;BME280;62389;51.412;5.436;2023-08-07T05:37:01;101368.81;;;12.58;100.00
74045;BME280;62389;51.412;5.436;2023-08-07T05:39:26;101374.19;;;12.55;100.00
74045;BME280;62389;51.412;5.436;2023-08-07T05:41:51;101377.75;;;12.54;100.00
74045;BME280;62389;51.412;5.436;2023-08-07T05:44:19;101374.19;;;12.55;100.00
74045;BME280;62389;51.412;5.436;2023-08-07T05:46:44;101381.19;;;12.56;100.00
74045;BME280;62389;51.412;5.436;2023-08-07T05:49:09;101376.81;;;12.55;99.80
74045;BME280;62389;51.412;5.436;2023-08-07T05:51:35;101388.19;;;12.55;100.00
74045;BME280;62389;51.412;5.436;2023-08-07T05:54:00;101384.66;;;12.56;100.00
74045;BME280;62389;51.412;5.436;2023-08-07T05:56:26;101384.56;;;12.58;100.00
74045;BME280;62389;51.412;5.436;2023-08-07T05:58:51;101383.66;;;12.59;99.44
74045;BME280;62389;51.412;5.436;2023-08-07T06:01:16;101389.63;;;12.62;100.00
74045;BME280;62389;51.412;5.436;2023-08-07T06:03:43;101388.69;;;12.63;99.16
74045;BME280;62389;51.412;5.436;2023-08-07T06:06:08;101395.59;;;12.66;99.67
74045;BME280;62389;51.412;5.436;2023-08-07T06:08:33;101393.69;;;12.69;99.50
74045;BME280;62389;51.412;5.436;2023-08-07T06:10:59;101388.22;;;12.74;98.96
74045;BME280;62389;51.412;5.436;2023-08-07T06:13:28;101390.72;;;12.77;98.82
74045;BME280;62389;51.412;5.436;2023-08-07T06:15:54;101402.81;;;12.81;99.18
74045;BME280;62389;51.412;5.436;2023-08-07T06:18:20;101399.19;;;12.84;98.99
74045;BME280;62389;51.412;5.436;2023-08-07T06:20:45;101402.53;;;12.87;99.49
74045;BME280;62389;51.412;5.436;2023-08-07T06:23:11;101399.91;;;12.87;99.03
74045;BME280;62389;51.412;5.436;2023-08-07T06:25:37;101400.75;;;12.88;97.63
74045;BME280;62389;51.412;5.436;2023-08-07T06:28:02;101406.84;;;12.88;97.39
74045;BME280;62389;51.412;5.436;2023-08-07T06:30:28;101413.81;;;12.89;97.41
74045;BME280;62389;51.412;5.436;2023-08-07T06:32:53;101411.13;;;12.91;96.92
74045;BME280;62389;51.412;5.436;2023-08-07T06:35:18;101412.69;;;12.95;97.58
74045;BME280;62389;51.412;5.436;2023-08-07T06:37:44;101416.81;;;13.01;97.67
74045;BME280;62389;51.412;5.436;2023-08-07T06:40:09;101423.56;;;13.06;96.83
74045;BME280;62389;51.412;5.436;2023-08-07T06:42:35;101421.53;;;13.13;96.91
74045;BME280;62389;51.412;5.436;2023-08-07T06:45:00;101424.66;;;13.21;95.48
74045;BME280;62389;51.412;5.436;2023-08-07T06:47:26;101422.63;;;13.28;94.92
74045;BME280;62389;51.412;5.436;2023-08-07T06:49:51;101423.34;;;13.31;94.36
74045;BME280;62389;51.412;5.436;2023-08-07T06:52:16;101429.25;;;13.36;94.89
74045;BME280;62389;51.412;5.436;2023-08-07T06:54:42;101427.25;;;13.41;94.90
74045;BME280;62389;51.412;5.436;2023-08-07T06:57:07;101427.06;;;13.46;95.58
74045;BME280;62389;51.412;5.436;2023-08-07T06:59:32;101429.53;;;13.49;94.55
74045;BME280;62389;51.412;5.436;2023-08-07T07:01:58;101426.69;;;13.54;93.75
74045;BME280;62389;51.412;5.436;2023-08-07T07:04:23;101433.50;;;13.58;93.08
74045;BME280;62389;51.412;5.436;2023-08-07T07:06:48;101439.47;;;13.61;91.64
74045;BME280;62389;51.412;5.436;2023-08-07T07:09:14;101447.16;;;13.66;91.98
74045;BME280;62389;51.412;5.436;2023-08-07T07:11:42;101440.81;;;13.70;91.92
74045;BME280;62389;51.412;5.436;2023-08-07T07:14:08;101442.44;;;13.72;91.53
74045;BME280;62389;51.412;5.436;2023-08-07T07:16:34;101442.22;;;13.77;89.89
74045;BME280;62389;51.412;5.436;2023-08-07T07:19:01;101443.72;;;13.83;89.67
74045;BME280;62389;51.412;5.436;2023-08-07T07:21:26;101446.22;;;13.86;88.43
74045;BME280;62389;51.412;5.436;2023-08-07T07:23:51;101452.94;;;13.91;88.48
74045;BME280;62389;51.412;5.436;2023-08-07T07:26:17;101458.00;;;13.96;88.19
74045;BME280;62389;51.412;5.436;2023-08-07T07:28:42;101451.63;;;14.00;87.38
74045;BME280;62389;51.412;5.436;2023-08-07T07:31:08;101447.94;;;14.04;88.40
74045;BME280;62389;51.412;5.436;2023-08-07T07:33:36;101444.94;;;14.12;89.69
74045;BME280;62389;51.412;5.436;2023-08-07T07:36:04;101456.94;;;14.17;87.48
74045;BME280;62389;51.412;5.436;2023-08-07T07:38:29;101458.44;;;14.23;87.17
74045;BME280;62389;51.412;5.436;2023-08-07T07:40:55;101463.47;;;14.28;87.43
74045;BME280;62389;51.412;5.436;2023-08-07T07:43:22;101472.06;;;14.31;87.37
74045;BME280;62389;51.412;5.436;2023-08-07T07:45:47;101470.13;;;14.35;87.05
74045;BME280;62389;51.412;5.436;2023-08-07T07:48:13;101477.03;;;14.37;88.07
74045;BME280;62389;51.412;5.436;2023-08-07T07:50:38;101483.97;;;14.38;86.87
74045;BME280;62389;51.412;5.436;2023-08-07T07:53:03;101480.38;;;14.41;86.03
74045;BME280;62389;51.412;5.436;2023-08-07T07:55:29;101483.69;;;14.44;86.45
74045;BME280;62389;51.412;5.436;2023-08-07T07:57:54;101488.66;;;14.50;85.75
74045;BME280;62389;51.412;5.436;2023-08-07T08:00:21;101486.44;;;14.60;83.28
74045;BME280;62389;51.412;5.436;2023-08-07T08:02:48;101487.59;;;14.72;84.96
74045;BME280;62389;51.412;5.436;2023-08-07T08:05:13;101485.38;;;14.82;81.56
74045;BME280;62389;51.412;5.436;2023-08-07T08:07:42;101483.25;;;14.88;82.58
74045;BME280;62389;51.412;5.436;2023-08-07T08:10:08;101486.34;;;14.96;82.77
74045;BME280;62389;51.412;5.436;2023-08-07T08:12:35;101495.53;;;15.05;82.74
74045;BME280;62389;51.412;5.436;2023-08-07T08:15:01;101495.31;;;15.10;81.22
74045;BME280;62389;51.412;5.436;2023-08-07T08:17:27;101496.94;;;15.12;81.59
74045;BME280;62389;51.412;5.436;2023-08-07T08:19:52;101494.06;;;15.17;81.73
74045;BME280;62389;51.412;5.436;2023-08-07T08:22:18;101492.97;;;15.21;81.53
74045;BME280;62389;51.412;5.436;2023-08-07T08:24:44;101498.84;;;15.26;80.29
74045;BME280;62389;51.412;5.436;2023-08-07T08:27:09;101500.31;;;15.32;77.20
74045;BME280;62389;51.412;5.436;2023-08-07T08:29:35;101502.63;;;15.38;79.08
74045;BME280;62389;51.412;5.436;2023-08-07T08:32:00;101499.41;;;15.48;76.09
74045;BME280;62389;51.412;5.436;2023-08-07T08:34:26;101500.63;;;15.59;76.05
74045;BME280;62389;51.412;5.436;2023-08-07T08:36:52;101500.84;;;15.71;74.10
74045;BME280;62389;51.412;5.436;2023-08-07T08:39:18;101496.50;;;15.86;73.87
74045;BME280;62389;51.412;5.436;2023-08-07T08:41:46;101507.63;;;15.91;73.07
74045;BME280;62389;51.412;5.436;2023-08-07T08:44:12;101511.91;;;15.94;72.94
74045;BME280;62389;51.412;5.436;2023-08-07T08:46:38;101514.97;;;15.86;72.93
74045;BME280;62389;51.412;5.436;2023-08-07T08:49:05;101520.22;;;15.86;73.25
74045;BME280;62389;51.412;5.436;2023-08-07T08:51:33;101519.72;;;15.95;73.49
74045;BME280;62389;51.412;5.436;2023-08-07T08:53:59;101522.97;;;16.00;73.97
74045;BME280;62389;51.412;5.436;2023-08-07T08:56:24;101518.28;;;16.05;72.21
74045;BME280;62389;51.412;5.436;2023-08-07T08:58:50;101529.69;;;16.06;71.85
74045;BME280;62389;51.412;5.436;2023-08-07T09:01:17;101522.66;;;16.07;70.16
74045;BME280;62389;51.412;5.436;2023-08-07T09:03:44;101533.34;;;16.19;76.68
74045;BME280;62389;51.412;5.436;2023-08-07T09:06:10;101526.84;;;16.41;68.80
74045;BME280;62389;51.412;5.436;2023-08-07T09:08:38;101532.06;;;16.42;68.13
74045;BME280;62389;51.412;5.436;2023-08-07T09:11:06;101533.28;;;16.67;66.42
74045;BME280;62389;51.412;5.436;2023-08-07T09:13:33;101526.44;;;17.51;63.63
74045;BME280;62389;51.412;5.436;2023-08-07T09:16:00;101528.81;;;18.26;62.17
74045;BME280;62389;51.412;5.436;2023-08-07T09:18:26;101528.09;;;19.16;60.53
74045;BME280;62389;51.412;5.436;2023-08-07T09:20:52;101528.22;;;19.78;57.85
74045;BME280;62389;51.412;5.436;2023-08-07T09:23:19;101539.44;;;19.82;54.79
74045;BME280;62389;51.412;5.436;2023-08-07T09:25:44;101533.03;;;19.97;55.78
74045;BME280;62389;51.412;5.436;2023-08-07T09:28:10;101539.59;;;20.04;56.49
74045;BME280;62389;51.412;5.436;2023-08-07T09:30:37;101544.22;;;19.77;55.27
74045;BME280;62389;51.412;5.436;2023-08-07T09:33:04;101532.69;;;19.39;56.43
74045;BME280;62389;51.412;5.436;2023-08-07T09:35:30;101532.13;;;18.96;58.42
74045;BME280;62389;51.412;5.436;2023-08-07T09:37:59;101534.72;;;18.71;60.54
74045;BME280;62389;51.412;5.436;2023-08-07T09:40:25;101548.22;;;18.53;59.26
74045;BME280;62389;51.412;5.436;2023-08-07T09:42:54;101553.47;;;18.68;58.36
74045;BME280;62389;51.412;5.436;2023-08-07T09:47:46;101548.06;;;19.09;56.66
74045;BME280;62389;51.412;5.436;2023-08-07T09:50:15;101534.56;;;18.99;56.76
74045;BME280;62389;51.412;5.436;2023-08-07T09:52:46;101546.72;;;18.49;57.97
74045;BME280;62389;51.412;5.436;2023-08-07T09:55:12;101557.63;;;18.18;60.73
74045;BME280;62389;51.412;5.436;2023-08-07T09:57:38;101554.97;;;18.18;59.36
74045;BME280;62389;51.412;5.436;2023-08-07T10:00:07;101555.84;;;18.31;60.10
74045;BME280;62389;51.412;5.436;2023-08-07T10:02:37;101565.84;;;18.40;56.82
74045;BME280;62389;51.412;5.436;2023-08-07T10:05:04;101556.50;;;18.61;60.26
74045;BME280;62389;51.412;5.436;2023-08-07T10:07:30;101571.41;;;18.77;58.99
74045;BME280;62389;51.412;5.436;2023-08-07T10:09:56;101563.50;;;18.89;57.31
74045;BME280;62389;51.412;5.436;2023-08-07T10:12:23;101563.84;;;19.10;59.88
74045;BME280;62389;51.412;5.436;2023-08-07T10:14:50;101573.53;;;19.24;59.05
74045;BME280;62389;51.412;5.436;2023-08-07T10:17:16;101576.38;;;19.08;54.79
74045;BME280;62389;51.412;5.436;2023-08-07T10:19:43;101568.25;;;18.84;55.67
74045;BME280;62389;51.412;5.436;2023-08-07T10:22:09;101568.72;;;18.64;57.94
74045;BME280;62389;51.412;5.436;2023-08-07T10:24:36;101563.97;;;18.69;59.12
74045;BME280;62389;51.412;5.436;2023-08-07T10:27:06;101567.09;;;18.88;58.50
74045;BME280;62389;51.412;5.436;2023-08-07T10:29:33;101566.38;;;18.99;57.18
74045;BME280;62389;51.412;5.436;2023-08-07T10:32:00;101571.81;;;19.10;56.68
74045;BME280;62389;51.412;5.436;2023-08-07T10:34:29;101571.38;;;19.04;56.50
74045;BME280;62389;51.412;5.436;2023-08-07T10:36:54;101577.59;;;18.90;56.86
74045;BME280;62389;51.412;5.436;2023-08-07T10:39:20;101581.22;;;18.89;57.17
74045;BME280;62389;51.412;5.436;2023-08-07T10:41:52;101587.31;;;18.77;57.15
74045;BME280;62389;51.412;5.436;2023-08-07T10:44:25;101594.19;;;18.52;57.01
74045;BME280;62389;51.412;5.436;2023-08-07T10:46:56;101593.28;;;18.39;59.76
74045;BME280;62389;51.412;5.436;2023-08-07T10:49:40;101593.16;;;18.55;61.16
74045;BME280;62389;51.412;5.436;2023-08-07T10:52:12;101587.72;;;18.71;57.43
74045;BME280;62389;51.412;5.436;2023-08-07T10:54:38;101589.16;;;18.89;58.47
74045;BME280;62389;51.412;5.436;2023-08-07T10:57:18;101597.03;;;19.03;55.83
74045;BME280;62389;51.412;5.436;2023-08-07T10:59:45;101595.25;;;19.17;53.67
74045;BME280;62389;51.412;5.436;2023-08-07T11:02:23;101599.50;;;19.32;56.90
74045;BME280;62389;51.412;5.436;2023-08-07T11:04:49;101598.16;;;19.39;53.93
74045;BME280;62389;51.412;5.436;2023-08-07T11:07:23;101604.72;;;19.46;56.69
74045;BME280;62389;51.412;5.436;2023-08-07T11:09:48;101604.28;;;19.52;54.48
74045;BME280;62389;51.412;5.436;2023-08-07T11:12:14;101593.47;;;19.55;56.43
74045;BME280;62389;51.412;5.436;2023-08-07T11:14:40;101602.47;;;19.53;53.41
74045;BME280;62389;51.412;5.436;2023-08-07T11:17:06;101596.75;;;19.46;54.15
74045;BME280;62389;51.412;5.436;2023-08-07T11:19:31;101595.25;;;19.42;54.65
74045;BME280;62389;51.412;5.436;2023-08-07T11:21:57;101603.22;;;19.42;55.26
74045;BME280;62389;51.412;5.436;2023-08-07T11:24:22;101596.63;;;19.48;57.10
74045;BME280;62389;51.412;5.436;2023-08-07T11:26:48;101589.84;;;19.56;55.37
74045;BME280;62389;51.412;5.436;2023-08-07T11:29:17;101585.03;;;19.63;56.20
74045;BME280;62389;51.412;5.436;2023-08-07T11:31:43;101603.34;;;19.53;54.68
74045;BME280;62389;51.412;5.436;2023-08-07T11:34:10;101596.13;;;19.30;55.54
74045;BME280;62389;51.412;5.436;2023-08-07T11:36:41;101602.69;;;19.24;57.51
74045;BME280;62389;51.412;5.436;2023-08-07T11:39:07;101602.50;;;19.40;58.21
74045;BME280;62389;51.412;5.436;2023-08-07T11:41:32;101592.31;;;19.34;56.96
74045;BME280;62389;51.412;5.436;2023-08-07T11:43:58;101593.38;;;19.44;57.41
74045;BME280;62389;51.412;5.436;2023-08-07T11:46:25;101593.47;;;19.55;59.27
74045;BME280;62389;51.412;5.436;2023-08-07T11:48:52;101592.03;;;19.64;55.87
74045;BME280;62389;51.412;5.436;2023-08-07T11:51:19;101597.09;;;19.54;55.61
74045;BME280;62389;51.412;5.436;2023-08-07T11:53:45;101597.72;;;19.45;57.13
74045;BME280;62389;51.412;5.436;2023-08-07T11:56:12;101597.19;;;19.40;56.05
74045;BME280;62389;51.412;5.436;2023-08-07T11:58:45;101588.47;;;19.25;56.41
74045;BME280;62389;51.412;5.436;2023-08-07T12:01:21;101587.91;;;19.07;57.70
74045;BME280;62389;51.412;5.436;2023-08-07T12:06:24;101610.56;;;18.59;58.21
74045;BME280;62389;51.412;5.436;2023-08-07T12:08:50;101608.41;;;18.37;60.54
74045;BME280;62389;51.412;5.436;2023-08-07T12:11:19;101617.47;;;17.92;62.95
74045;BME280;62389;51.412;5.436;2023-08-07T12:13:46;101622.97;;;17.74;65.69
74045;BME280;62389;51.412;5.436;2023-08-07T12:16:13;101618.19;;;17.65;66.78
74045;BME280;62389;51.412;5.436;2023-08-07T12:18:45;101621.69;;;17.66;66.25
74045;BME280;62389;51.412;5.436;2023-08-07T12:21:14;101619.03;;;17.66;66.27
74045;BME280;62389;51.412;5.436;2023-08-07T12:23:40;101628.09;;;17.61;69.90
74045;BME280;62389;51.412;5.436;2023-08-07T12:26:06;101625.75;;;17.57;70.22
74045;BME280;62389;51.412;5.436;2023-08-07T12:28:32;101628.59;;;17.54;72.79
74045;BME280;62389;51.412;5.436;2023-08-07T12:30:58;101625.94;;;17.54;71.08
74045;BME280;62389;51.412;5.436;2023-08-07T12:33:23;101613.22;;;17.75;73.02
74045;BME280;62389;51.412;5.436;2023-08-07T12:35:48;101616.50;;;18.07;75.48
74045;BME280;62389;51.412;5.436;2023-08-07T12:38:14;101603.75;;;18.28;70.13
74045;BME280;62389;51.412;5.436;2023-08-07T12:40:40;101607.09;;;18.44;66.75
74045;BME280;62389;51.412;5.436;2023-08-07T12:43:06;101609.28;;;18.64;65.11
74045;BME280;62389;51.412;5.436;2023-08-07T12:45:32;101599.22;;;18.84;64.97
74045;BME280;62389;51.412;5.436;2023-08-07T12:47:58;101608.50;;;19.04;64.81